createdAt,value
2019-03-01T00:01:22.343Z,19.40
2019-03-01T00:05:17.284Z,27.27
2019-03-01T00:09:20.928Z,18.80
2019-03-01T00:13:13.028Z,24.30
2019-03-01T00:16:54.535Z,22.57
2019-03-01T00:20:52.095Z,21.27
2019-03-01T00:24:47.163Z,22.43
2019-03-01T00:28:38.101Z,23.47
2019-03-01T00:32:21.697Z,25.03
2019-03-01T00:36:20.431Z,24.57
2019-03-01T00:39:45.905Z,23.67
2019-03-01T00:43:46.373Z,26.63
2019-03-01T00:47:06.076Z,29.70
2019-03-01T00:50:14.873Z,31.07
2019-03-01T00:53:23.526Z,29.60
2019-03-01T00:56:32.209Z,30.03
2019-03-01T00:59:40.936Z,34.27
2019-03-01T01:02:49.782Z,32.47
2019-03-01T01:05:58.555Z,34.27
2019-03-01T01:09:08.833Z,35.90
2019-03-01T01:12:17.359Z,33.80
2019-03-01T01:15:25.916Z,34.03
2019-03-01T01:18:34.734Z,34.70
2019-03-01T01:21:42.068Z,35.63
2019-03-01T01:24:50.809Z,33.67
2019-03-01T01:27:59.610Z,28.83
2019-03-01T01:31:08.812Z,30.30
2019-03-01T01:34:17.611Z,29.77
2019-03-01T01:37:27.995Z,27.57
2019-03-01T01:40:35.474Z,28.97
2019-03-01T01:43:44.296Z,30.73
2019-03-01T01:46:53.137Z,32.53
2019-03-01T01:50:01.138Z,25.90
2019-03-01T01:53:09.810Z,30.40
2019-03-01T01:56:28.710Z,33.87
2019-03-01T01:59:37.392Z,34.23
2019-03-01T02:02:44.750Z,29.73
2019-03-01T02:05:52.025Z,33.70
2019-03-01T02:09:00.786Z,30.53
2019-03-01T02:12:09.474Z,32.57
2019-03-01T02:15:18.204Z,33.53
2019-03-01T02:18:26.865Z,36.10
2019-03-01T02:21:35.670Z,28.73
2019-03-01T02:24:44.164Z,38.03
2019-03-01T02:27:52.834Z,36.90
2019-03-01T02:31:02.991Z,35.17
2019-03-01T02:34:13.433Z,32.70
2019-03-01T02:37:22.109Z,38.03
2019-03-01T02:40:30.890Z,29.80
2019-03-01T02:43:39.557Z,31.03
2019-03-01T02:46:59.490Z,37.80
2019-03-01T02:50:09.593Z,31.53
2019-03-01T02:53:18.328Z,33.00
2019-03-01T02:56:25.786Z,29.30
2019-03-01T02:59:34.604Z,27.37
2019-03-01T03:02:43.470Z,31.07
2019-03-01T03:06:06.430Z,31.70
2019-03-01T03:09:34.672Z,34.93
2019-03-01T03:12:57.875Z,34.23
2019-03-01T03:16:06.877Z,32.10
2019-03-01T03:19:18.692Z,34.80
2019-03-01T03:22:27.549Z,34.73
2019-03-01T03:25:37.835Z,32.97
2019-03-01T03:28:46.901Z,30.70
2019-03-01T03:31:55.737Z,36.97
2019-03-01T03:35:04.722Z,35.43
2019-03-01T03:38:13.503Z,31.33
2019-03-01T03:41:22.103Z,33.20
2019-03-01T03:44:30.646Z,34.67
2019-03-01T03:47:39.567Z,32.27
2019-03-01T03:50:48.212Z,33.47
2019-03-01T03:53:56.849Z,33.53
2019-03-01T03:57:05.576Z,33.70
2019-03-01T04:00:24.621Z,39.23
2019-03-01T04:03:33.315Z,36.27
2019-03-01T04:06:41.857Z,38.17
2019-03-01T04:09:50.815Z,35.47
2019-03-01T04:12:59.454Z,39.83
2019-03-01T04:16:09.582Z,37.90
2019-03-01T04:19:20.158Z,37.43
2019-03-01T04:22:29.064Z,37.43
2019-03-01T04:25:37.619Z,38.83
2019-03-01T04:28:46.336Z,34.37
2019-03-01T04:31:55.165Z,39.90
2019-03-01T04:35:03.825Z,37.03
2019-03-01T04:38:12.655Z,39.10
2019-03-01T04:41:21.989Z,32.77
2019-03-01T04:44:30.709Z,33.73
2019-03-01T04:47:39.430Z,33.20
2019-03-01T04:50:58.707Z,34.90
2019-03-01T04:54:14.172Z,36.93
2019-03-01T04:57:23.267Z,34.33
2019-03-01T05:00:32.029Z,41.43
2019-03-01T05:03:40.769Z,37.93
2019-03-01T05:06:49.410Z,40.37
2019-03-01T05:09:58.157Z,33.47
2019-03-01T05:13:06.827Z,40.27
2019-03-01T05:16:15.446Z,30.47
2019-03-01T05:19:24.138Z,35.83
2019-03-01T05:22:58.073Z,32.10
2019-03-01T05:26:06.629Z,36.70
2019-03-01T05:29:15.395Z,27.13
2019-03-01T05:32:23.908Z,37.83
2019-03-01T05:35:32.581Z,33.43
2019-03-01T05:38:41.262Z,40.57
2019-03-01T05:41:49.890Z,35.03
2019-03-01T05:45:00.440Z,30.17
2019-03-01T05:48:19.263Z,26.83
2019-03-01T05:51:38.373Z,30.10
2019-03-01T05:54:47.039Z,29.03
2019-03-01T05:58:34.520Z,21.70
2019-03-01T06:01:58.032Z,20.50
2019-03-01T06:05:43.419Z,22.60
2019-03-01T06:09:34.627Z,23.03
2019-03-01T06:14:01.898Z,22.17
2019-03-01T06:17:59.061Z,22.07
2019-03-01T06:21:57.456Z,21.30
2019-03-01T06:25:46.750Z,22.00
2019-03-01T06:29:43.058Z,18.97
2019-03-01T06:33:28.139Z,18.57
2019-03-01T06:37:49.715Z,20.80
2019-03-01T06:41:57.416Z,19.47
2019-03-01T06:46:23.364Z,20.77
2019-03-01T06:49:53.537Z,16.73
2019-03-01T06:53:20.316Z,22.83
2019-03-01T06:56:28.839Z,15.03
2019-03-01T06:59:37.465Z,14.80
2019-03-01T07:02:47.145Z,17.10
2019-03-01T07:06:07.701Z,16.83
2019-03-01T07:09:16.531Z,15.97
2019-03-01T07:12:25.410Z,17.00
2019-03-01T07:15:34.381Z,15.73
2019-03-01T07:18:43.044Z,11.43
2019-03-01T07:21:51.649Z,15.70
2019-03-01T07:25:00.329Z,13.73
2019-03-01T07:28:10.220Z,12.03
2019-03-01T07:31:31.267Z,16.80
2019-03-01T07:34:50.039Z,15.43
2019-03-01T07:37:58.655Z,12.83
2019-03-01T07:41:07.326Z,13.97
2019-03-01T07:44:15.871Z,12.40
2019-03-01T07:47:24.467Z,13.30
2019-03-01T07:50:33.397Z,10.13
2019-03-01T07:53:42.199Z,5.43
2019-03-01T07:56:51.470Z,6.57
2019-03-01T08:00:00.065Z,5.10
2019-03-01T08:03:11.851Z,9.70
2019-03-01T08:06:24.639Z,6.83
2019-03-01T08:09:34.227Z,7.93
2019-03-01T08:12:43.693Z,6.90
2019-03-01T08:15:52.299Z,3.87
2019-03-01T08:19:00.997Z,7.93
2019-03-01T08:22:09.630Z,7.53
2019-03-01T08:25:22.644Z,5.33
2019-03-01T08:28:28.474Z,9.83
2019-03-01T08:31:37.059Z,5.50
2019-03-01T08:34:45.690Z,6.57
2019-03-01T08:38:04.555Z,5.87
2019-03-01T08:41:14.994Z,7.67
2019-03-01T08:44:24.238Z,8.73
2019-03-01T08:47:43.213Z,8.93
2019-03-01T08:50:52.997Z,5.93
2019-03-01T08:54:01.631Z,7.33
2019-03-01T08:57:09.970Z,4.63
2019-03-01T09:00:31.350Z,4.03
2019-03-01T09:03:46.139Z,8.40
2019-03-01T09:07:05.030Z,7.83
2019-03-01T09:10:15.600Z,3.70
2019-03-01T09:13:24.168Z,7.17
2019-03-01T09:16:32.862Z,4.93
2019-03-01T09:19:41.529Z,4.97
2019-03-01T09:22:50.036Z,8.13
2019-03-01T09:25:58.796Z,6.23
2019-03-01T09:29:07.439Z,4.67
2019-03-01T09:32:16.072Z,8.90
2019-03-01T09:35:33.052Z,4.67
2019-03-01T09:38:42.763Z,7.43
2019-03-01T09:41:51.993Z,6.00
2019-03-01T09:45:13.630Z,8.67
2019-03-01T09:48:31.773Z,9.93
2019-03-01T09:51:43.662Z,5.07
2019-03-01T09:54:52.534Z,7.33
2019-03-01T09:58:01.085Z,5.30
2019-03-01T10:01:14.686Z,7.80
2019-03-01T10:04:23.336Z,10.37
2019-03-01T10:07:32.041Z,9.50
2019-03-01T10:10:42.062Z,10.43
2019-03-01T10:13:50.681Z,10.87
2019-03-01T10:17:09.563Z,5.00
2019-03-01T10:20:18.171Z,8.83
2019-03-01T10:23:26.824Z,8.40
2019-03-01T10:26:33.902Z,8.30
2019-03-01T10:29:42.692Z,6.30
2019-03-01T10:32:51.217Z,5.90
2019-03-01T10:35:59.843Z,4.87
2019-03-01T10:39:15.485Z,6.57
2019-03-01T10:42:24.047Z,6.00
2019-03-01T10:45:32.862Z,6.23
2019-03-01T10:48:41.466Z,4.57
2019-03-01T10:51:50.158Z,3.60
2019-03-01T10:55:11.895Z,5.87
2019-03-01T10:58:20.544Z,8.33
2019-03-01T11:01:29.092Z,4.23
2019-03-01T11:04:36.125Z,4.77
2019-03-01T11:07:44.759Z,6.20
2019-03-01T11:11:03.768Z,5.80
2019-03-01T11:14:12.349Z,7.30
2019-03-01T11:17:21.047Z,5.03
2019-03-01T11:20:29.830Z,5.57
2019-03-01T11:23:38.443Z,6.23
2019-03-01T11:26:47.080Z,5.03
2019-03-01T11:29:56.807Z,8.93
2019-03-01T11:33:15.757Z,4.33
2019-03-01T11:36:24.356Z,7.00
2019-03-01T11:39:33.106Z,7.17
2019-03-01T11:42:41.779Z,7.33
2019-03-01T11:45:50.438Z,10.80
2019-03-01T11:49:00.116Z,6.57
2019-03-01T11:52:19.018Z,10.97
2019-03-01T11:55:27.713Z,12.47
2019-03-01T11:58:36.351Z,9.13
2019-03-01T12:01:45.022Z,4.87
2019-03-01T12:04:53.746Z,9.97
2019-03-01T12:08:02.372Z,6.70
2019-03-01T12:11:11.349Z,6.20
2019-03-01T12:14:19.995Z,8.83
2019-03-01T12:17:28.592Z,5.73
2019-03-01T12:20:37.209Z,9.57
2019-03-01T12:23:55.993Z,10.03
2019-03-01T12:27:04.671Z,9.03
2019-03-01T12:30:16.647Z,11.87
2019-03-01T12:33:31.373Z,7.47
2019-03-01T12:36:39.883Z,6.33
2019-03-01T12:39:48.514Z,8.10
2019-03-01T12:43:07.707Z,7.90
2019-03-01T12:46:18.051Z,4.93
2019-03-01T12:49:26.827Z,10.13
2019-03-01T12:52:36.528Z,27.17
2019-03-01T12:55:45.296Z,11.63
2019-03-01T12:58:53.896Z,8.93
2019-03-01T13:02:02.571Z,7.73
2019-03-01T13:05:21.436Z,10.90
2019-03-01T13:08:30.029Z,4.97
2019-03-01T13:11:38.649Z,5.03
2019-03-01T13:14:47.275Z,6.53
2019-03-01T13:17:55.893Z,9.40
2019-03-01T13:21:04.548Z,7.63
2019-03-01T13:24:16.369Z,8.93
2019-03-01T13:27:23.284Z,9.93
2019-03-01T13:30:32.491Z,7.93
2019-03-01T13:33:42.119Z,7.50
2019-03-01T13:36:50.699Z,9.20
2019-03-01T13:39:59.309Z,8.80
2019-03-01T13:43:08.140Z,10.47
2019-03-01T13:46:16.761Z,12.47
2019-03-01T13:49:26.809Z,8.03
2019-03-01T13:52:35.830Z,6.93
2019-03-01T13:55:46.023Z,10.93
2019-03-01T13:59:09.563Z,10.80
2019-03-01T14:02:18.183Z,10.13
2019-03-01T14:05:26.783Z,12.23
2019-03-01T14:08:37.404Z,10.07
2019-03-01T14:11:46.003Z,9.57
2019-03-01T14:14:54.612Z,6.70
2019-03-01T14:18:03.270Z,5.20
2019-03-01T14:21:13.734Z,13.53
2019-03-01T14:24:22.379Z,10.33
2019-03-01T14:27:33.060Z,15.83
2019-03-01T14:30:41.655Z,9.80
2019-03-01T14:33:51.618Z,10.80
2019-03-01T14:37:10.847Z,14.03
2019-03-01T14:40:22.472Z,7.27
2019-03-01T14:43:29.934Z,8.73
2019-03-01T14:46:38.763Z,9.63
2019-03-01T14:49:47.472Z,8.27
2019-03-01T14:52:58.455Z,9.80
2019-03-01T14:56:21.533Z,7.37
2019-03-01T14:59:59.508Z,17.33
2019-03-01T15:03:37.203Z,10.33
2019-03-01T15:06:45.771Z,11.87
2019-03-01T15:09:57.006Z,7.50
2019-03-01T15:13:05.320Z,11.20
2019-03-01T15:16:14.026Z,10.60
2019-03-01T15:19:23.288Z,7.57
2019-03-01T15:23:04.123Z,9.17
2019-03-01T15:26:13.635Z,8.13
2019-03-01T15:29:22.380Z,11.70
2019-03-01T15:32:31.204Z,11.27
2019-03-01T15:35:41.096Z,9.97
2019-03-01T15:38:49.742Z,13.77
2019-03-01T15:41:58.380Z,10.47
2019-03-01T15:45:08.642Z,11.70
2019-03-01T15:48:17.171Z,9.27
2019-03-01T15:51:38.101Z,12.47
2019-03-01T15:54:46.319Z,14.43
2019-03-01T15:57:56.414Z,11.00
2019-03-01T16:01:10.940Z,11.30
2019-03-01T16:04:30.491Z,11.63
2019-03-01T16:07:40.125Z,13.30
2019-03-01T16:10:48.874Z,14.33
2019-03-01T16:13:57.545Z,11.30
2019-03-01T16:17:06.102Z,14.93
2019-03-01T16:20:16.793Z,11.80
2019-03-01T16:23:27.474Z,12.77
2019-03-01T16:26:36.390Z,11.33
2019-03-01T16:29:46.070Z,11.80
2019-03-01T16:32:54.669Z,10.67
2019-03-01T16:36:05.074Z,12.60
2019-03-01T16:39:16.593Z,10.80
2019-03-01T16:42:38.660Z,8.70
2019-03-01T16:45:46.560Z,15.27
2019-03-01T16:49:05.368Z,10.67
2019-03-01T16:52:14.002Z,9.87
2019-03-01T16:55:24.361Z,10.97
2019-03-01T16:58:31.741Z,10.97
2019-03-01T17:01:40.799Z,13.27
2019-03-01T17:05:03.574Z,11.50
2019-03-01T17:08:10.211Z,18.23
2019-03-01T17:11:21.855Z,23.77
2019-03-01T17:14:30.506Z,11.07
2019-03-01T17:17:39.161Z,11.23
2019-03-01T17:20:47.789Z,8.83
2019-03-01T17:23:56.410Z,10.43
2019-03-01T17:27:15.508Z,10.03
2019-03-01T17:30:24.631Z,9.40
2019-03-01T17:33:45.031Z,46.97
2019-03-01T17:36:54.664Z,29.53
2019-03-01T17:40:03.413Z,39.83
2019-03-01T17:43:12.043Z,17.03
2019-03-01T17:46:21.830Z,12.80
2019-03-01T17:49:32.916Z,11.20
2019-03-01T17:52:43.854Z,15.20
2019-03-01T17:55:52.570Z,12.63
2019-03-01T17:59:01.239Z,9.37
2019-03-01T18:02:12.151Z,8.17
2019-03-01T18:05:20.107Z,8.50
2019-03-01T18:08:39.713Z,10.77
2019-03-01T18:11:49.231Z,8.50
2019-03-01T18:14:57.723Z,12.17
2019-03-01T18:18:08.968Z,14.50
2019-03-01T18:21:15.943Z,13.80
2019-03-01T18:24:22.952Z,11.67
2019-03-01T18:27:31.688Z,14.13
2019-03-01T18:30:40.302Z,16.33
2019-03-01T18:33:48.927Z,15.47
2019-03-01T18:36:58.640Z,8.10
2019-03-01T18:40:08.257Z,10.97
2019-03-01T18:43:18.135Z,8.00
2019-03-01T18:46:26.922Z,7.27
2019-03-01T18:49:35.558Z,10.47
2019-03-01T18:52:44.206Z,6.10
2019-03-01T18:56:02.922Z,14.53
2019-03-01T18:59:11.576Z,7.00
2019-03-01T19:02:20.114Z,7.50
2019-03-01T19:05:28.775Z,8.07
2019-03-01T19:08:39.599Z,9.93
2019-03-01T19:11:47.672Z,10.93
2019-03-01T19:14:56.309Z,11.13
2019-03-01T19:18:16.915Z,14.03
2019-03-01T19:21:42.059Z,7.43
2019-03-01T19:24:50.811Z,9.07
2019-03-01T19:27:59.497Z,13.17
2019-03-01T19:31:08.029Z,14.50
2019-03-01T19:34:17.021Z,11.43
2019-03-01T19:37:26.583Z,8.03
2019-03-01T19:40:47.134Z,11.40
2019-03-01T19:43:57.752Z,8.93
2019-03-01T19:47:06.073Z,13.43
2019-03-01T19:50:21.684Z,11.73
2019-03-01T19:53:29.562Z,5.73
2019-03-01T19:56:38.281Z,9.57
2019-03-01T19:59:49.648Z,9.53
2019-03-01T20:02:57.482Z,12.73
2019-03-01T20:06:08.077Z,7.63
2019-03-01T20:09:15.450Z,11.70
2019-03-01T20:12:24.188Z,13.43
2019-03-01T20:15:34.651Z,9.33
2019-03-01T20:18:45.004Z,9.27
2019-03-01T20:21:55.013Z,8.67
2019-03-01T20:25:03.955Z,10.27
2019-03-01T20:28:15.331Z,9.20
2019-03-01T20:31:22.980Z,9.33
2019-03-01T20:34:34.846Z,13.22
2019-03-01T20:37:42.646Z,14.75
2019-03-01T20:40:52.048Z,9.23
2019-03-01T20:44:01.175Z,10.60
2019-03-01T20:47:10.031Z,13.53
2019-03-01T20:50:29.196Z,9.23
2019-03-01T20:53:49.496Z,6.53
2019-03-01T20:56:58.602Z,12.13
2019-03-01T21:00:10.319Z,11.10
2019-03-01T21:03:18.906Z,13.30
2019-03-01T21:06:27.665Z,13.60
2019-03-01T21:09:37.728Z,11.07
2019-03-01T21:12:46.758Z,8.87
2019-03-01T21:15:55.311Z,10.90
2019-03-01T21:19:05.727Z,8.97
2019-03-01T21:22:24.516Z,11.33
2019-03-01T21:25:35.817Z,9.47
2019-03-01T21:28:43.453Z,8.77
2019-03-01T21:31:52.812Z,12.03
2019-03-01T21:35:01.459Z,8.00
2019-03-01T21:38:10.663Z,7.30
2019-03-01T21:41:20.382Z,7.30
2019-03-01T21:44:28.971Z,13.67
2019-03-01T21:47:37.654Z,11.30
2019-03-01T21:50:56.448Z,9.50
2019-03-01T21:54:05.005Z,13.87
2019-03-01T21:57:13.684Z,7.63
2019-03-01T22:00:25.477Z,14.77
2019-03-01T22:03:34.017Z,15.87
2019-03-01T22:06:42.575Z,15.27
2019-03-01T22:09:51.386Z,11.80
2019-03-01T22:13:10.105Z,9.37
2019-03-01T22:16:18.806Z,6.47
2019-03-01T22:19:30.576Z,7.27
2019-03-01T22:22:38.776Z,7.63
2019-03-01T22:25:47.569Z,10.73
2019-03-01T22:29:08.944Z,7.37
2019-03-01T22:32:16.771Z,10.00
2019-03-01T22:35:25.370Z,10.70
2019-03-01T22:38:37.695Z,8.33
2019-03-01T22:41:44.683Z,8.97
2019-03-01T22:44:53.344Z,7.17
2019-03-01T22:48:03.083Z,10.60
2019-03-01T22:51:14.485Z,6.73
2019-03-01T22:54:31.989Z,9.73
2019-03-01T22:57:40.537Z,12.13
2019-03-01T23:01:12.646Z,10.33
2019-03-01T23:04:31.663Z,9.97
2019-03-01T23:07:40.226Z,7.37
2019-03-01T23:10:49.031Z,10.03
2019-03-01T23:13:57.728Z,9.83
2019-03-01T23:17:06.751Z,12.07
2019-03-01T23:20:15.475Z,10.60
2019-03-01T23:23:24.844Z,6.93
2019-03-01T23:26:33.475Z,8.17
2019-03-01T23:29:41.993Z,10.80
2019-03-01T23:32:52.701Z,10.40
2019-03-01T23:36:12.013Z,10.07
2019-03-01T23:39:21.741Z,6.00
2019-03-01T23:42:30.884Z,8.33
2019-03-01T23:45:40.102Z,8.78
2019-03-01T23:48:49.072Z,7.20
2019-03-01T23:51:58.471Z,9.87
2019-03-01T23:55:08.448Z,7.20
2019-03-01T23:58:27.459Z,7.50
